sensor_id;sensor_type;location;lat;lon;timestamp;pressure;altitude;pressure_sealevel;temperature;humidity
52855;BME280;38719;51.418;7.286;2023-07-31T00:00:54;99312.72;;;17.11;87.73
52855;BME280;38719;51.418;7.286;2023-07-31T00:03:21;99316.47;;;17.20;87.36
52855;BME280;38719;51.418;7.286;2023-07-31T00:05:49;99313.69;;;17.21;86.68
52855;BME280;38719;51.418;7.286;2023-07-31T00:08:16;99315.13;;;17.26;86.08
52855;BME280;38719;51.418;7.286;2023-07-31T00:10:44;99318.47;;;17.18;86.42
52855;BME280;38719;51.418;7.286;2023-07-31T00:13:12;99317.72;;;17.16;87.03
52855;BME280;38719;51.418;7.286;2023-07-31T00:15:41;99305.00;;;17.18;86.59
52855;BME280;38719;51.418;7.286;2023-07-31T00:18:08;99303.38;;;17.27;86.81
52855;BME280;38719;51.418;7.286;2023-07-31T00:20:36;99306.81;;;17.17;86.76
52855;BME280;38719;51.418;7.286;2023-07-31T00:23:03;99303.31;;;17.05;87.58
52855;BME280;38719;51.418;7.286;2023-07-31T00:25:31;99290.56;;;17.19;87.42
52855;BME280;38719;51.418;7.286;2023-07-31T00:27:58;99300.13;;;17.12;87.27
52855;BME280;38719;51.418;7.286;2023-07-31T00:30:26;99290.31;;;17.22;86.43
52855;BME280;38719;51.418;7.286;2023-07-31T00:32:55;99293.22;;;17.30;85.82
52855;BME280;38719;51.418;7.286;2023-07-31T00:35:23;99291.50;;;17.29;86.02
52855;BME280;38719;51.418;7.286;2023-07-31T00:37:50;99303.63;;;17.23;85.72
52855;BME280;38719;51.418;7.286;2023-07-31T00:40:18;99292.00;;;17.23;85.65
52855;BME280;38719;51.418;7.286;2023-07-31T00:42:46;99283.56;;;17.28;86.46
52855;BME280;38719;51.418;7.286;2023-07-31T00:45:13;99290.06;;;17.25;85.68
52855;BME280;38719;51.418;7.286;2023-07-31T00:47:41;99291.63;;;17.28;85.60
52855;BME280;38719;51.418;7.286;2023-07-31T00:50:10;99289.03;;;17.37;85.34
52855;BME280;38719;51.418;7.286;2023-07-31T00:52:38;99293.38;;;17.17;86.04
52855;BME280;38719;51.418;7.286;2023-07-31T00:55:06;99295.69;;;17.22;85.49
52855;BME280;38719;51.418;7.286;2023-07-31T00:57:34;99293.28;;;17.07;85.86
52855;BME280;38719;51.418;7.286;2023-07-31T01:00:04;99293.03;;;17.11;86.35
52855;BME280;38719;51.418;7.286;2023-07-31T01:02:32;99288.97;;;17.16;86.16
52855;BME280;38719;51.418;7.286;2023-07-31T01:05:00;99288.34;;;17.24;85.32
52855;BME280;38719;51.418;7.286;2023-07-31T01:07:36;99289.03;;;17.37;84.79
52855;BME280;38719;51.418;7.286;2023-07-31T01:10:11;99282.38;;;17.20;85.21
52855;BME280;38719;51.418;7.286;2023-07-31T01:12:45;99287.38;;;17.14;85.53
52855;BME280;38719;51.418;7.286;2023-07-31T01:15:12;99296.28;;;17.26;84.90
52855;BME280;38719;51.418;7.286;2023-07-31T01:17:42;99286.38;;;17.26;84.75
52855;BME280;38719;51.418;7.286;2023-07-31T01:20:11;99289.78;;;17.28;84.94
52855;BME280;38719;51.418;7.286;2023-07-31T01:22:54;99284.41;;;17.28;84.06
52855;BME280;38719;51.418;7.286;2023-07-31T01:25:41;99286.91;;;17.08;85.26
52855;BME280;38719;51.418;7.286;2023-07-31T01:28:13;99288.03;;;17.06;85.46
52855;BME280;38719;51.418;7.286;2023-07-31T01:30:43;99277.13;;;17.19;84.21
52855;BME280;38719;51.418;7.286;2023-07-31T01:33:12;99275.13;;;17.21;84.31
52855;BME280;38719;51.418;7.286;2023-07-31T01:35:44;99291.03;;;17.24;83.75
52855;BME280;38719;51.418;7.286;2023-07-31T01:38:12;99288.88;;;17.18;83.89
52855;BME280;38719;51.418;7.286;2023-07-31T01:40:42;99289.59;;;17.08;84.35
52855;BME280;38719;51.418;7.286;2023-07-31T01:43:10;99284.59;;;17.04;84.63
52855;BME280;38719;51.418;7.286;2023-07-31T01:45:37;99285.94;;;17.10;83.75
52855;BME280;38719;51.418;7.286;2023-07-31T01:48:05;99291.31;;;17.10;83.90
52855;BME280;38719;51.418;7.286;2023-07-31T01:50:32;99278.00;;;17.08;83.89
52855;BME280;38719;51.418;7.286;2023-07-31T01:53:00;99279.06;;;17.17;83.80
52855;BME280;38719;51.418;7.286;2023-07-31T01:55:28;99271.53;;;17.11;83.40
52855;BME280;38719;51.418;7.286;2023-07-31T01:57:57;99273.09;;;17.13;83.33
52855;BME280;38719;51.418;7.286;2023-07-31T02:00:24;99269.81;;;17.10;83.66
52855;BME280;38719;51.418;7.286;2023-07-31T02:02:52;99276.91;;;17.11;83.77
52855;BME280;38719;51.418;7.286;2023-07-31T02:05:20;99268.44;;;17.15;83.03
52855;BME280;38719;51.418;7.286;2023-07-31T02:07:47;99269.44;;;17.14;82.34
52855;BME280;38719;51.418;7.286;2023-07-31T02:10:15;99269.53;;;17.13;82.38
52855;BME280;38719;51.418;7.286;2023-07-31T02:12:43;99260.50;;;17.14;81.88
52855;BME280;38719;51.418;7.286;2023-07-31T02:15:11;99270.41;;;17.13;82.02
52855;BME280;38719;51.418;7.286;2023-07-31T02:17:39;99273.22;;;17.12;81.87
52855;BME280;38719;51.418;7.286;2023-07-31T02:20:08;99267.94;;;17.21;82.04
52855;BME280;38719;51.418;7.286;2023-07-31T02:22:35;99261.56;;;17.22;81.54
52855;BME280;38719;51.418;7.286;2023-07-31T02:25:03;99264.50;;;17.19;81.29
52855;BME280;38719;51.418;7.286;2023-07-31T02:27:31;99259.00;;;17.21;80.88
52855;BME280;38719;51.418;7.286;2023-07-31T02:29:59;99264.00;;;17.26;81.47
52855;BME280;38719;51.418;7.286;2023-07-31T02:32:28;99262.28;;;17.24;80.99
52855;BME280;38719;51.418;7.286;2023-07-31T02:34:55;99258.44;;;17.38;80.13
52855;BME280;38719;51.418;7.286;2023-07-31T02:37:23;99262.16;;;17.47;80.00
52855;BME280;38719;51.418;7.286;2023-07-31T02:39:51;99253.78;;;17.40;79.83
52855;BME280;38719;51.418;7.286;2023-07-31T02:42:18;99262.13;;;17.37;79.84
52855;BME280;38719;51.418;7.286;2023-07-31T02:44:46;99260.06;;;17.51;79.76
52855;BME280;38719;51.418;7.286;2023-07-31T02:47:13;99273.28;;;17.54;79.06
52855;BME280;38719;51.418;7.286;2023-07-31T02:49:42;99257.91;;;17.45;79.13
52855;BME280;38719;51.418;7.286;2023-07-31T02:52:10;99258.03;;;17.43;79.38
52855;BME280;38719;51.418;7.286;2023-07-31T02:54:37;99259.22;;;17.29;79.41
52855;BME280;38719;51.418;7.286;2023-07-31T02:57:05;99250.41;;;17.27;80.04
52855;BME280;38719;51.418;7.286;2023-07-31T02:59:33;99252.91;;;17.19;79.91
52855;BME280;38719;51.418;7.286;2023-07-31T03:02:01;99260.94;;;17.30;79.50
52855;BME280;38719;51.418;7.286;2023-07-31T03:04:28;99264.00;;;17.26;79.09
52855;BME280;38719;51.418;7.286;2023-07-31T03:06:57;99249.81;;;17.23;79.47
52855;BME280;38719;51.418;7.286;2023-07-31T03:09:25;99235.47;;;17.34;79.12
52855;BME280;38719;51.418;7.286;2023-07-31T03:11:52;99245.97;;;17.37;78.59
52855;BME280;38719;51.418;7.286;2023-07-31T03:14:20;99240.09;;;17.32;78.40
52855;BME280;38719;51.418;7.286;2023-07-31T03:16:47;99244.31;;;17.25;78.93
52855;BME280;38719;51.418;7.286;2023-07-31T03:19:15;99237.84;;;17.16;79.32
52855;BME280;38719;51.418;7.286;2023-07-31T03:21:42;99239.41;;;17.30;78.88
52855;BME280;38719;51.418;7.286;2023-07-31T03:24:11;99248.78;;;17.36;79.26
52855;BME280;38719;51.418;7.286;2023-07-31T03:26:39;99238.06;;;17.24;79.37
52855;BME280;38719;51.418;7.286;2023-07-31T03:29:07;99242.56;;;17.35;78.92
52855;BME280;38719;51.418;7.286;2023-07-31T03:31:35;99235.72;;;17.31;78.86
52855;BME280;38719;51.418;7.286;2023-07-31T03:34:03;99236.13;;;17.27;78.56
52855;BME280;38719;51.418;7.286;2023-07-31T03:36:30;99234.47;;;17.14;79.69
52855;BME280;38719;51.418;7.286;2023-07-31T03:38:58;99239.66;;;17.27;79.34
52855;BME280;38719;51.418;7.286;2023-07-31T03:41:27;99236.50;;;17.22;78.66
52855;BME280;38719;51.418;7.286;2023-07-31T03:43:54;99235.00;;;17.29;78.94
52855;BME280;38719;51.418;7.286;2023-07-31T03:46:23;99224.63;;;17.24;78.93
52855;BME280;38719;51.418;7.286;2023-07-31T03:48:51;99239.06;;;17.23;79.31
52855;BME280;38719;51.418;7.286;2023-07-31T03:51:18;99222.53;;;17.28;79.62
52855;BME280;38719;51.418;7.286;2023-07-31T03:53:46;99222.44;;;17.18;79.95
52855;BME280;38719;51.418;7.286;2023-07-31T03:56:14;99230.06;;;17.13;80.09
52855;BME280;38719;51.418;7.286;2023-07-31T03:58:43;99227.84;;;17.39;78.98
52855;BME280;38719;51.418;7.286;2023-07-31T04:01:10;99231.41;;;17.40;78.06
52855;BME280;38719;51.418;7.286;2023-07-31T04:03:38;99236.38;;;17.45;78.00
52855;BME280;38719;51.418;7.286;2023-07-31T04:06:05;99223.44;;;17.38;78.41
52855;BME280;38719;51.418;7.286;2023-07-31T04:08:34;99223.13;;;17.53;77.78
52855;BME280;38719;51.418;7.286;2023-07-31T04:11:01;99237.38;;;17.65;77.91
52855;BME280;38719;51.418;7.286;2023-07-31T04:13:29;99232.38;;;17.60;77.81
52855;BME280;38719;51.418;7.286;2023-07-31T04:15:58;99224.16;;;17.40;78.65
52855;BME280;38719;51.418;7.286;2023-07-31T04:18:26;99230.06;;;17.55;78.93
52855;BME280;38719;51.418;7.286;2023-07-31T04:20:53;99225.03;;;17.62;78.47
52855;BME280;38719;51.418;7.286;2023-07-31T04:23:21;99217.59;;;17.54;78.56
52855;BME280;38719;51.418;7.286;2023-07-31T04:25:48;99220.88;;;17.58;78.81
52855;BME280;38719;51.418;7.286;2023-07-31T04:28:16;99214.38;;;17.61;78.57
52855;BME280;38719;51.418;7.286;2023-07-31T04:30:44;99205.91;;;17.65;78.33
52855;BME280;38719;51.418;7.286;2023-07-31T04:33:16;99215.56;;;17.47;78.75
52855;BME280;38719;51.418;7.286;2023-07-31T04:35:49;99214.66;;;17.58;79.02
52855;BME280;38719;51.418;7.286;2023-07-31T04:38:18;99211.31;;;17.65;78.76
52855;BME280;38719;51.418;7.286;2023-07-31T04:40:46;99216.16;;;17.71;78.63
52855;BME280;38719;51.418;7.286;2023-07-31T04:43:14;99217.88;;;17.72;78.42
52855;BME280;38719;51.418;7.286;2023-07-31T04:45:44;99213.81;;;17.88;78.37
52855;BME280;38719;51.418;7.286;2023-07-31T04:48:13;99202.34;;;17.86;78.18
52855;BME280;38719;51.418;7.286;2023-07-31T04:50:42;99206.47;;;17.90;78.52
52855;BME280;38719;51.418;7.286;2023-07-31T04:53:09;99202.66;;;17.93;78.16
52855;BME280;38719;51.418;7.286;2023-07-31T04:55:37;99203.81;;;17.69;79.23
52855;BME280;38719;51.418;7.286;2023-07-31T04:58:05;99198.81;;;17.64;79.91
52855;BME280;38719;51.418;7.286;2023-07-31T05:00:32;99200.44;;;17.77;79.63
52855;BME280;38719;51.418;7.286;2023-07-31T05:03:00;99199.59;;;17.76;79.24
52855;BME280;38719;51.418;7.286;2023-07-31T05:05:28;99200.53;;;17.65;80.17
52855;BME280;38719;51.418;7.286;2023-07-31T05:07:56;99192.66;;;17.73;79.80
52855;BME280;38719;51.418;7.286;2023-07-31T05:10:24;99196.53;;;17.81;79.75
52855;BME280;38719;51.418;7.286;2023-07-31T05:12:52;99197.56;;;17.89;79.06
52855;BME280;38719;51.418;7.286;2023-07-31T05:15:19;99183.16;;;17.79;79.91
52855;BME280;38719;51.418;7.286;2023-07-31T05:17:47;99180.28;;;17.92;79.60
52855;BME280;38719;51.418;7.286;2023-07-31T05:20:15;99172.13;;;18.03;78.92
52855;BME280;38719;51.418;7.286;2023-07-31T05:22:42;99176.22;;;18.08;79.02
52855;BME280;38719;51.418;7.286;2023-07-31T05:25:11;99171.72;;;18.08;78.50
52855;BME280;38719;51.418;7.286;2023-07-31T05:27:39;99169.16;;;17.85;79.66
52855;BME280;38719;51.418;7.286;2023-07-31T05:30:07;99173.41;;;17.88;79.94
52855;BME280;38719;51.418;7.286;2023-07-31T05:32:35;99174.38;;;17.98;79.40
52855;BME280;38719;51.418;7.286;2023-07-31T05:35:03;99164.50;;;18.18;78.43
52855;BME280;38719;51.418;7.286;2023-07-31T05:37:31;99166.94;;;18.31;78.34
52855;BME280;38719;51.418;7.286;2023-07-31T05:39:59;99159.56;;;18.24;77.96
52855;BME280;38719;51.418;7.286;2023-07-31T05:42:28;99167.34;;;18.17;78.34
52855;BME280;38719;51.418;7.286;2023-07-31T05:44:55;99160.06;;;18.08;78.70
52855;BME280;38719;51.418;7.286;2023-07-31T05:47:26;99165.16;;;18.01;79.52
52855;BME280;38719;51.418;7.286;2023-07-31T05:49:54;99151.13;;;17.97;78.97
52855;BME280;38719;51.418;7.286;2023-07-31T05:52:21;99149.44;;;18.06;78.53
52855;BME280;38719;51.418;7.286;2023-07-31T05:54:49;99148.00;;;18.02;78.94
52855;BME280;38719;51.418;7.286;2023-07-31T05:57:16;99136.72;;;18.18;78.81
52855;BME280;38719;51.418;7.286;2023-07-31T05:59:45;99137.81;;;18.06;78.40
52855;BME280;38719;51.418;7.286;2023-07-31T06:02:13;99137.09;;;18.03;79.39
52855;BME280;38719;51.418;7.286;2023-07-31T06:04:40;99139.34;;;17.98;79.40
52855;BME280;38719;51.418;7.286;2023-07-31T06:07:08;99143.22;;;18.06;79.49
52855;BME280;38719;51.418;7.286;2023-07-31T06:09:37;99138.91;;;18.03;80.44
52855;BME280;38719;51.418;7.286;2023-07-31T06:12:05;99128.31;;;18.11;79.36
52855;BME280;38719;51.418;7.286;2023-07-31T06:14:33;99131.31;;;18.28;78.36
52855;BME280;38719;51.418;7.286;2023-07-31T06:17:02;99124.50;;;18.14;78.46
52855;BME280;38719;51.418;7.286;2023-07-31T06:19:29;99120.28;;;18.31;78.13
52855;BME280;38719;51.418;7.286;2023-07-31T06:21:57;99115.06;;;18.39;77.69
52855;BME280;38719;51.418;7.286;2023-07-31T06:24:24;99121.44;;;18.48;77.42
52855;BME280;38719;51.418;7.286;2023-07-31T06:26:52;99116.31;;;18.35;77.64
52855;BME280;38719;51.418;7.286;2023-07-31T06:29:20;99115.06;;;18.39;77.61
52855;BME280;38719;51.418;7.286;2023-07-31T06:31:47;99126.69;;;18.40;77.75
52855;BME280;38719;51.418;7.286;2023-07-31T06:34:16;99119.44;;;18.50;77.24
52855;BME280;38719;51.418;7.286;2023-07-31T06:36:44;99123.03;;;18.60;76.88
52855;BME280;38719;51.418;7.286;2023-07-31T06:39:12;99118.19;;;18.44;77.15
52855;BME280;38719;51.418;7.286;2023-07-31T06:41:39;99117.19;;;18.35;77.91
52855;BME280;38719;51.418;7.286;2023-07-31T06:44:07;99110.25;;;18.43;78.34
52855;BME280;38719;51.418;7.286;2023-07-31T06:46:34;99114.63;;;18.44;78.89
52855;BME280;38719;51.418;7.286;2023-07-31T06:49:03;99114.50;;;18.35;79.00
52855;BME280;38719;51.418;7.286;2023-07-31T06:51:32;99115.47;;;18.34;79.46
52855;BME280;38719;51.418;7.286;2023-07-31T06:53:59;99121.69;;;18.35;79.71
52855;BME280;38719;51.418;7.286;2023-07-31T06:56:27;99120.84;;;18.25;79.30
52855;BME280;38719;51.418;7.286;2023-07-31T06:58:55;99110.78;;;18.27;79.65
52855;BME280;38719;51.418;7.286;2023-07-31T07:01:23;99113.16;;;18.20;79.87
52855;BME280;38719;51.418;7.286;2023-07-31T07:03:51;99126.75;;;18.09;80.06
52855;BME280;38719;51.418;7.286;2023-07-31T07:06:19;99115.16;;;18.18;80.11
52855;BME280;38719;51.418;7.286;2023-07-31T07:08:48;99116.28;;;18.15;79.96
52855;BME280;38719;51.418;7.286;2023-07-31T07:11:16;99124.91;;;18.09;80.45
52855;BME280;38719;51.418;7.286;2023-07-31T07:13:44;99124.03;;;17.99;81.08
52855;BME280;38719;51.418;7.286;2023-07-31T07:16:11;99133.50;;;17.93;80.78
52855;BME280;38719;51.418;7.286;2023-07-31T07:18:39;99122.63;;;17.95;80.82
52855;BME280;38719;51.418;7.286;2023-07-31T07:21:19;99119.50;;;18.09;80.42
52855;BME280;38719;51.418;7.286;2023-07-31T07:23:48;99119.22;;;18.02;81.13
52855;BME280;38719;51.418;7.286;2023-07-31T07:26:16;99120.06;;;18.03;81.44
52855;BME280;38719;51.418;7.286;2023-07-31T07:28:43;99119.66;;;18.08;80.92
52855;BME280;38719;51.418;7.286;2023-07-31T07:31:11;99113.25;;;17.99;81.78
52855;BME280;38719;51.418;7.286;2023-07-31T07:33:39;99119.84;;;18.16;81.83
52855;BME280;38719;51.418;7.286;2023-07-31T07:36:06;99116.41;;;18.14;81.67
52855;BME280;38719;51.418;7.286;2023-07-31T07:38:36;99115.16;;;18.18;81.07
52855;BME280;38719;51.418;7.286;2023-07-31T07:41:06;99110.91;;;18.25;81.39
52855;BME280;38719;51.418;7.286;2023-07-31T07:43:34;99118.88;;;18.36;80.77
52855;BME280;38719;51.418;7.286;2023-07-31T07:46:02;99113.50;;;18.36;80.77
52855;BME280;38719;51.418;7.286;2023-07-31T07:48:29;99111.47;;;18.19;81.49
52855;BME280;38719;51.418;7.286;2023-07-31T07:50:57;99105.94;;;18.11;81.61
52855;BME280;38719;51.418;7.286;2023-07-31T07:53:24;99101.78;;;18.07;81.59
52855;BME280;38719;51.418;7.286;2023-07-31T07:55:52;99101.44;;;17.90;82.96
52855;BME280;38719;51.418;7.286;2023-07-31T07:58:21;99101.44;;;17.90;82.93
52855;BME280;38719;51.418;7.286;2023-07-31T08:00:50;99105.03;;;18.00;82.46
52855;BME280;38719;51.418;7.286;2023-07-31T08:03:18;99098.94;;;17.98;82.24
52855;BME280;38719;51.418;7.286;2023-07-31T08:05:46;99104.81;;;18.13;81.90
52855;BME280;38719;51.418;7.286;2023-07-31T08:08:15;99095.84;;;18.13;81.23
52855;BME280;38719;51.418;7.286;2023-07-31T08:10:43;99100.72;;;17.88;82.30
52855;BME280;38719;51.418;7.286;2023-07-31T08:13:11;99108.31;;;18.04;83.07
52855;BME280;38719;51.418;7.286;2023-07-31T08:15:42;99089.22;;;18.17;82.52
52855;BME280;38719;51.418;7.286;2023-07-31T08:18:10;99088.53;;;18.34;81.86
52855;BME280;38719;51.418;7.286;2023-07-31T08:20:38;99091.94;;;18.36;81.29
52855;BME280;38719;51.418;7.286;2023-07-31T08:23:06;99088.22;;;18.37;81.21
52855;BME280;38719;51.418;7.286;2023-07-31T08:25:34;99086.25;;;18.30;81.71
52855;BME280;38719;51.418;7.286;2023-07-31T08:28:02;99081.25;;;18.25;82.55
52855;BME280;38719;51.418;7.286;2023-07-31T08:30:31;99081.97;;;18.27;82.23
52855;BME280;38719;51.418;7.286;2023-07-31T08:33:01;99073.63;;;18.20;82.67
52855;BME280;38719;51.418;7.286;2023-07-31T08:35:29;99080.97;;;18.09;83.16
52855;BME280;38719;51.418;7.286;2023-07-31T08:37:56;99083.66;;;18.09;83.40
52855;BME280;38719;51.418;7.286;2023-07-31T08:40:24;99078.25;;;18.09;82.76
52855;BME280;38719;51.418;7.286;2023-07-31T08:42:54;99083.06;;;17.95;83.24
52855;BME280;38719;51.418;7.286;2023-07-31T08:45:23;99075.34;;;17.91;83.53
52855;BME280;38719;51.418;7.286;2023-07-31T08:47:51;99090.97;;;17.97;83.66
52855;BME280;38719;51.418;7.286;2023-07-31T08:50:21;99079.75;;;17.92;82.90
52855;BME280;38719;51.418;7.286;2023-07-31T08:52:50;99078.00;;;18.12;82.67
52855;BME280;38719;51.418;7.286;2023-07-31T08:55:18;99073.88;;;18.08;82.23
52855;BME280;38719;51.418;7.286;2023-07-31T08:57:51;99068.34;;;18.19;82.96
52855;BME280;38719;51.418;7.286;2023-07-31T09:00:19;99070.34;;;18.17;83.25
52855;BME280;38719;51.418;7.286;2023-07-31T09:02:54;99062.09;;;18.09;83.08
52855;BME280;38719;51.418;7.286;2023-07-31T09:05:26;99070.63;;;18.14;83.11
52855;BME280;38719;51.418;7.286;2023-07-31T09:07:55;99076.88;;;18.24;82.56
52855;BME280;38719;51.418;7.286;2023-07-31T09:10:23;99072.31;;;18.15;82.30
52855;BME280;38719;51.418;7.286;2023-07-31T09:12:51;99065.25;;;18.33;82.21
52855;BME280;38719;51.418;7.286;2023-07-31T09:15:20;99061.59;;;18.54;82.02
52855;BME280;38719;51.418;7.286;2023-07-31T09:18:04;99072.22;;;18.46;82.03
52855;BME280;38719;51.418;7.286;2023-07-31T09:20:34;99070.06;;;18.30;81.50
52855;BME280;38719;51.418;7.286;2023-07-31T09:23:06;99075.19;;;18.23;82.21
52855;BME280;38719;51.418;7.286;2023-07-31T09:25:36;99085.97;;;18.23;82.29
52855;BME280;38719;51.418;7.286;2023-07-31T09:28:05;99074.19;;;18.24;82.56
52855;BME280;38719;51.418;7.286;2023-07-31T09:30:45;99069.19;;;18.10;82.74
52855;BME280;38719;51.418;7.286;2023-07-31T09:33:12;99071.16;;;17.98;83.34
52855;BME280;38719;51.418;7.286;2023-07-31T09:35:41;99067.66;;;18.17;83.28
52855;BME280;38719;51.418;7.286;2023-07-31T09:38:11;99062.41;;;18.35;82.43
52855;BME280;38719;51.418;7.286;2023-07-31T09:40:40;99063.53;;;18.32;81.83
52855;BME280;38719;51.418;7.286;2023-07-31T09:43:10;99056.75;;;18.38;82.22
52855;BME280;38719;51.418;7.286;2023-07-31T09:45:39;99052.22;;;18.58;80.91
52855;BME280;38719;51.418;7.286;2023-07-31T09:48:09;99060.88;;;18.52;81.52
52855;BME280;38719;51.418;7.286;2023-07-31T09:50:37;99045.56;;;18.43;82.65
52855;BME280;38719;51.418;7.286;2023-07-31T09:53:07;99051.50;;;18.36;82.24
52855;BME280;38719;51.418;7.286;2023-07-31T09:55:36;99055.88;;;18.67;81.94
52855;BME280;38719;51.418;7.286;2023-07-31T09:58:05;99050.50;;;18.77;81.69
52855;BME280;38719;51.418;7.286;2023-07-31T10:00:33;99050.50;;;18.67;82.11
52855;BME280;38719;51.418;7.286;2023-07-31T10:03:04;99046.97;;;18.66;81.78
52855;BME280;38719;51.418;7.286;2023-07-31T10:05:35;99047.94;;;18.65;81.86
52855;BME280;38719;51.418;7.286;2023-07-31T10:08:03;99038.56;;;18.69;81.46
52855;BME280;38719;51.418;7.286;2023-07-31T10:10:32;99049.09;;;18.92;81.72
52855;BME280;38719;51.418;7.286;2023-07-31T10:13:03;99050.75;;;19.03;80.83
52855;BME280;38719;51.418;7.286;2023-07-31T10:15:32;99048.34;;;19.00;80.68
52855;BME280;38719;51.418;7.286;2023-07-31T10:18:01;99038.19;;;19.22;80.22
52855;BME280;38719;51.418;7.286;2023-07-31T10:20:29;99054.72;;;19.09;80.11
52855;BME280;38719;51.418;7.286;2023-07-31T10:22:57;99040.25;;;18.90;81.03
52855;BME280;38719;51.418;7.286;2023-07-31T10:25:26;99040.28;;;18.71;81.34
52855;BME280;38719;51.418;7.286;2023-07-31T10:27:57;99047.38;;;18.81;81.60
52855;BME280;38719;51.418;7.286;2023-07-31T10:30:27;99043.13;;;18.79;81.55
52855;BME280;38719;51.418;7.286;2023-07-31T10:32:56;99051.34;;;18.97;81.41
52855;BME280;38719;51.418;7.286;2023-07-31T10:35:25;99036.69;;;18.99;81.17
52855;BME280;38719;51.418;7.286;2023-07-31T10:37:53;99046.22;;;19.04;80.88
52855;BME280;38719;51.418;7.286;2023-07-31T10:40:24;99039.44;;;18.80;81.45
52855;BME280;38719;51.418;7.286;2023-07-31T10:42:53;99038.47;;;18.42;82.73
52855;BME280;38719;51.418;7.286;2023-07-31T10:45:35;99029.66;;;18.49;82.94
52855;BME280;38719;51.418;7.286;2023-07-31T10:48:05;99036.03;;;18.48;82.74
52855;BME280;38719;51.418;7.286;2023-07-31T10:50:37;99044.84;;;18.70;82.35
52855;BME280;38719;51.418;7.286;2023-07-31T10:53:05;99041.44;;;18.58;82.58
52855;BME280;38719;51.418;7.286;2023-07-31T10:55:39;99041.56;;;18.47;82.96
52855;BME280;38719;51.418;7.286;2023-07-31T10:58:09;99048.09;;;18.44;82.98
52855;BME280;38719;51.418;7.286;2023-07-31T11:00:39;99045.69;;;18.51;82.84
52855;BME280;38719;51.418;7.286;2023-07-31T11:03:08;99050.66;;;18.46;83.07
52855;BME280;38719;51.418;7.286;2023-07-31T11:05:45;99040.44;;;18.59;82.95
52855;BME280;38719;51.418;7.286;2023-07-31T11:08:14;99045.41;;;18.64;82.75
52855;BME280;38719;51.418;7.286;2023-07-31T11:10:43;99036.75;;;18.70;82.34
52855;BME280;38719;51.418;7.286;2023-07-31T11:13:11;99035.75;;;18.61;81.98
52855;BME280;38719;51.418;7.286;2023-07-31T11:15:40;99028.38;;;18.44;82.60
52855;BME280;38719;51.418;7.286;2023-07-31T11:18:08;99029.91;;;18.56;82.24
52855;BME280;38719;51.418;7.286;2023-07-31T11:20:37;99035.75;;;18.51;82.48
52855;BME280;38719;51.418;7.286;2023-07-31T11:23:08;99034.47;;;18.56;82.45
52855;BME280;38719;51.418;7.286;2023-07-31T11:25:37;99038.88;;;18.66;82.39
52855;BME280;38719;51.418;7.286;2023-07-31T11:28:08;99030.22;;;18.73;82.01
52855;BME280;38719;51.418;7.286;2023-07-31T11:30:36;99024.66;;;18.74;82.09
52855;BME280;38719;51.418;7.286;2023-07-31T11:33:06;99032.50;;;18.58;82.14
52855;BME280;38719;51.418;7.286;2023-07-31T11:35:35;99039.16;;;18.44;82.61
52855;BME280;38719;51.418;7.286;2023-07-31T11:38:03;99030.06;;;18.45;83.04
52855;BME280;38719;51.418;7.286;2023-07-31T11:40:31;99032.91;;;18.73;82.91
52855;BME280;38719;51.418;7.286;2023-07-31T11:43:04;99030.63;;;18.97;81.71
52855;BME280;38719;51.418;7.286;2023-07-31T11:45:31;99028.47;;;19.11;81.18
52855;BME280;38719;51.418;7.286;2023-07-31T11:48:01;99022.81;;;18.94;80.98
52855;BME280;38719;51.418;7.286;2023-07-31T11:50:33;99028.34;;;18.73;81.56
52855;BME280;38719;51.418;7.286;2023-07-31T11:53:04;99017.00;;;18.69;82.38
52855;BME280;38719;51.418;7.286;2023-07-31T11:55:34;99023.97;;;18.62;82.68
52855;BME280;38719;51.418;7.286;2023-07-31T11:58:03;99021.00;;;18.65;83.52
52855;BME280;38719;51.418;7.286;2023-07-31T12:00:30;99022.41;;;18.50;83.46
52855;BME280;38719;51.418;7.286;2023-07-31T12:02:58;99021.72;;;18.67;83.08
52855;BME280;38719;51.418;7.286;2023-07-31T12:05:26;99019.13;;;18.56;83.75
52855;BME280;38719;51.418;7.286;2023-07-31T12:07:55;99011.75;;;18.78;82.61
52855;BME280;38719;51.418;7.286;2023-07-31T12:10:28;99008.88;;;18.99;82.24
52855;BME280;38719;51.418;7.286;2023-07-31T12:13:00;99008.28;;;19.15;82.25
52855;BME280;38719;51.418;7.286;2023-07-31T12:15:36;99004.06;;;19.30;80.99
52855;BME280;38719;51.418;7.286;2023-07-31T12:18:06;99008.59;;;19.40;81.05
52855;BME280;38719;51.418;7.286;2023-07-31T12:20:34;99001.00;;;19.53;79.97
52855;BME280;38719;51.418;7.286;2023-07-31T12:23:03;99007.50;;;19.60;79.65
52855;BME280;38719;51.418;7.286;2023-07-31T12:25:33;98997.09;;;19.65;79.50
52855;BME280;38719;51.418;7.286;2023-07-31T12:28:06;99002.28;;;19.77;78.60
52855;BME280;38719;51.418;7.286;2023-07-31T12:30:38;99007.91;;;19.65;79.12
52855;BME280;38719;51.418;7.286;2023-07-31T12:33:12;98996.75;;;19.51;78.87
52855;BME280;38719;51.418;7.286;2023-07-31T12:35:42;98999.47;;;19.51;79.21
52855;BME280;38719;51.418;7.286;2023-07-31T12:38:12;98995.78;;;19.52;78.76
52855;BME280;38719;51.418;7.286;2023-07-31T12:40:41;99000.53;;;19.30;79.79
52855;BME280;38719;51.418;7.286;2023-07-31T12:43:09;99007.13;;;19.17;80.52
52855;BME280;38719;51.418;7.286;2023-07-31T12:45:36;99006.34;;;18.97;81.38
52855;BME280;38719;51.418;7.286;2023-07-31T12:48:04;98995.25;;;19.00;81.61
52855;BME280;38719;51.418;7.286;2023-07-31T12:50:32;99001.56;;;19.19;80.58
52855;BME280;38719;51.418;7.286;2023-07-31T12:53:03;98993.06;;;19.14;81.81
52855;BME280;38719;51.418;7.286;2023-07-31T12:55:32;99000.94;;;19.35;80.43
52855;BME280;38719;51.418;7.286;2023-07-31T12:58:00;99000.09;;;19.35;80.01
52855;BME280;38719;51.418;7.286;2023-07-31T13:00:28;98999.00;;;19.27;79.83
52855;BME280;38719;51.418;7.286;2023-07-31T13:02:56;98993.63;;;19.17;80.34
52855;BME280;38719;51.418;7.286;2023-07-31T13:05:24;98986.22;;;19.29;80.57
52855;BME280;38719;51.418;7.286;2023-07-31T13:07:51;98983.25;;;19.51;80.02